sensor_id;sensor_type;location;lat;lon;timestamp;temperature;humidity
20985;DHT22;10651;47.552;7.606;2023-07-13T06:15:50;21.80;99.90
20985;DHT22;10651;47.552;7.606;2023-07-13T06:18:16;22.00;99.90
20985;DHT22;10651;47.552;7.606;2023-07-13T06:20:42;22.00;99.90
20985;DHT22;10651;47.552;7.606;2023-07-13T06:23:08;22.10;99.90
20985;DHT22;10651;47.552;7.606;2023-07-13T06:25:34;21.90;99.90
20985;DHT22;10651;47.552;7.606;2023-07-13T06:27:59;22.10;99.90
20985;DHT22;10651;47.552;7.606;2023-07-13T06:30:26;22.10;99.90
20985;DHT22;10651;47.552;7.606;2023-07-13T06:32:52;21.90;99.90
20985;DHT22;10651;47.552;7.606;2023-07-13T06:35:17;22.10;99.90
20985;DHT22;10651;47.552;7.606;2023-07-13T06:37:43;22.00;99.90
20985;DHT22;10651;47.552;7.606;2023-07-13T06:40:09;21.90;99.90
20985;DHT22;10651;47.552;7.606;2023-07-13T06:42:35;21.90;99.90
20985;DHT22;10651;47.552;7.606;2023-07-13T06:45:01;22.10;99.90
20985;DHT22;10651;47.552;7.606;2023-07-13T06:47:27;22.10;99.90
20985;DHT22;10651;47.552;7.606;2023-07-13T06:49:52;22.20;99.90
20985;DHT22;10651;47.552;7.606;2023-07-13T06:52:20;22.40;99.90
20985;DHT22;10651;47.552;7.606;2023-07-13T06:58:25;22.40;99.90
20985;DHT22;10651;47.552;7.606;2023-07-13T07:01:06;22.40;99.90
20985;DHT22;10651;47.552;7.606;2023-07-13T07:03:35;22.40;99.90
20985;DHT22;10651;47.552;7.606;2023-07-13T07:06:12;22.30;99.90
20985;DHT22;10651;47.552;7.606;2023-07-13T07:08:54;22.20;99.90
20985;DHT22;10651;47.552;7.606;2023-07-13T07:11:22;22.20;99.90
20985;DHT22;10651;47.552;7.606;2023-07-13T07:13:49;22.10;99.90
20985;DHT22;10651;47.552;7.606;2023-07-13T07:16:22;22.10;99.90
20985;DHT22;10651;47.552;7.606;2023-07-13T07:18:48;22.20;99.90
20985;DHT22;10651;47.552;7.606;2023-07-13T07:21:16;22.20;99.90
20985;DHT22;10651;47.552;7.606;2023-07-13T07:23:52;22.30;99.90
20985;DHT22;10651;47.552;7.606;2023-07-13T07:26:25;22.20;99.90
20985;DHT22;10651;47.552;7.606;2023-07-13T07:29:00;22.30;99.90
20985;DHT22;10651;47.552;7.606;2023-07-13T07:31:41;22.30;99.90
20985;DHT22;10651;47.552;7.606;2023-07-13T07:34:22;22.30;99.90
20985;DHT22;10651;47.552;7.606;2023-07-13T07:37:05;22.40;99.90
20985;DHT22;10651;47.552;7.606;2023-07-13T07:39:58;22.50;99.90
20985;DHT22;10651;47.552;7.606;2023-07-13T07:42:38;22.60;99.90
20985;DHT22;10651;47.552;7.606;2023-07-13T07:45:23;22.50;99.90
20985;DHT22;10651;47.552;7.606;2023-07-13T07:47:57;22.50;99.90
20985;DHT22;10651;47.552;7.606;2023-07-13T07:50:32;22.50;99.90
20985;DHT22;10651;47.552;7.606;2023-07-13T07:53:10;22.60;99.90
20985;DHT22;10651;47.552;7.606;2023-07-13T07:55:46;22.60;99.90
20985;DHT22;10651;47.552;7.606;2023-07-13T07:58:22;22.70;99.90
20985;DHT22;10651;47.552;7.606;2023-07-13T08:01:05;22.70;99.90
20985;DHT22;10651;47.552;7.606;2023-07-13T08:03:54;22.70;99.90
20985;DHT22;10651;47.552;7.606;2023-07-13T08:06:27;22.80;99.90
20985;DHT22;10651;47.552;7.606;2023-07-13T08:09:02;22.80;99.90
20985;DHT22;10651;47.552;7.606;2023-07-13T08:11:32;22.90;99.90
20985;DHT22;10651;47.552;7.606;2023-07-13T08:14:01;23.00;99.90
20985;DHT22;10651;47.552;7.606;2023-07-13T08:16:27;22.80;99.90
20985;DHT22;10651;47.552;7.606;2023-07-13T08:19:05;23.00;99.90
20985;DHT22;10651;47.552;7.606;2023-07-13T08:21:36;23.20;99.90
20985;DHT22;10651;47.552;7.606;2023-07-13T08:24:09;23.20;99.90
20985;DHT22;10651;47.552;7.606;2023-07-13T08:26:55;23.20;99.90
20985;DHT22;10651;47.552;7.606;2023-07-13T08:29:32;23.40;99.90
20985;DHT22;10651;47.552;7.606;2023-07-13T08:32:18;23.60;99.90
20985;DHT22;10651;47.552;7.606;2023-07-13T08:35:07;23.50;99.90
20985;DHT22;10651;47.552;7.606;2023-07-13T08:37:33;23.40;99.90
20985;DHT22;10651;47.552;7.606;2023-07-13T08:40:22;23.60;99.90
20985;DHT22;10651;47.552;7.606;2023-07-13T08:42:54;23.70;99.90
20985;DHT22;10651;47.552;7.606;2023-07-13T08:45:34;23.80;99.90
20985;DHT22;10651;47.552;7.606;2023-07-13T08:48:46;23.70;99.90
20985;DHT22;10651;47.552;7.606;2023-07-13T08:56:55;24.00;99.90
20985;DHT22;10651;47.552;7.606;2023-07-13T08:59:26;24.10;99.90
20985;DHT22;10651;47.552;7.606;2023-07-13T09:04:45;24.30;99.90
20985;DHT22;10651;47.552;7.606;2023-07-13T09:07:14;24.30;99.90
20985;DHT22;10651;47.552;7.606;2023-07-13T09:12:17;24.50;99.90
20985;DHT22;10651;47.552;7.606;2023-07-13T09:14:45;24.50;99.90
20985;DHT22;10651;47.552;7.606;2023-07-13T09:17:25;24.60;99.90
20985;DHT22;10651;47.552;7.606;2023-07-13T09:22:47;25.10;99.90
20985;DHT22;10651;47.552;7.606;2023-07-13T09:27:46;25.20;99.90
20985;DHT22;10651;47.552;7.606;2023-07-13T09:32:44;25.30;99.90
20985;DHT22;10651;47.552;7.606;2023-07-13T09:35:26;25.00;99.90
20985;DHT22;10651;47.552;7.606;2023-07-13T09:38:04;25.10;99.90
20985;DHT22;10651;47.552;7.606;2023-07-13T09:43:13;24.80;99.90
20985;DHT22;10651;47.552;7.606;2023-07-13T09:45:39;24.70;99.90
20985;DHT22;10651;47.552;7.606;2023-07-13T09:48:13;24.70;99.90
20985;DHT22;10651;47.552;7.606;2023-07-13T09:50:40;25.10;99.90
20985;DHT22;10651;47.552;7.606;2023-07-13T09:53:16;25.30;99.90
20985;DHT22;10651;47.552;7.606;2023-07-13T09:55:44;25.30;99.90
20985;DHT22;10651;47.552;7.606;2023-07-13T09:58:16;25.30;99.90
20985;DHT22;10651;47.552;7.606;2023-07-13T10:00:54;25.40;99.90
20985;DHT22;10651;47.552;7.606;2023-07-13T10:03:29;25.70;99.90
20985;DHT22;10651;47.552;7.606;2023-07-13T10:06:23;25.90;99.90
20985;DHT22;10651;47.552;7.606;2023-07-13T10:08:58;26.00;99.90
20985;DHT22;10651;47.552;7.606;2023-07-13T10:11:27;26.10;99.90
20985;DHT22;10651;47.552;7.606;2023-07-13T10:14:00;26.10;99.90
20985;DHT22;10651;47.552;7.606;2023-07-13T10:16:40;26.20;99.90
20985;DHT22;10651;47.552;7.606;2023-07-13T10:19:26;26.30;99.90
20985;DHT22;10651;47.552;7.606;2023-07-13T10:21:55;26.30;99.90
20985;DHT22;10651;47.552;7.606;2023-07-13T10:24:33;26.30;99.90
20985;DHT22;10651;47.552;7.606;2023-07-13T10:27:12;26.40;99.90
20985;DHT22;10651;47.552;7.606;2023-07-13T10:29:55;26.30;99.90
20985;DHT22;10651;47.552;7.606;2023-07-13T10:32:24;26.40;99.90
20985;DHT22;10651;47.552;7.606;2023-07-13T10:34:51;26.50;99.90
20985;DHT22;10651;47.552;7.606;2023-07-13T10:37:48;26.00;99.90
20985;DHT22;10651;47.552;7.606;2023-07-13T10:40:21;26.00;99.90
20985;DHT22;10651;47.552;7.606;2023-07-13T10:42:50;26.00;99.90
20985;DHT22;10651;47.552;7.606;2023-07-13T10:45:33;25.90;99.90
20985;DHT22;10651;47.552;7.606;2023-07-13T10:48:00;25.50;99.90
20985;DHT22;10651;47.552;7.606;2023-07-13T10:51:00;25.60;99.90
20985;DHT22;10651;47.552;7.606;2023-07-13T10:53:39;26.00;99.90
20985;DHT22;10651;47.552;7.606;2023-07-13T10:56:32;26.40;99.90
20985;DHT22;10651;47.552;7.606;2023-07-13T11:04:44;26.00;99.90
20985;DHT22;10651;47.552;7.606;2023-07-13T11:07:28;25.60;99.90
20985;DHT22;10651;47.552;7.606;2023-07-13T11:10:37;25.90;99.90
20985;DHT22;10651;47.552;7.606;2023-07-13T11:12:53;26.00;99.90
20985;DHT22;10651;47.552;7.606;2023-07-13T11:15:52;26.10;99.90
20985;DHT22;10651;47.552;7.606;2023-07-13T11:18:28;26.50;99.90
20985;DHT22;10651;47.552;7.606;2023-07-13T11:24:17;26.60;99.90
20985;DHT22;10651;47.552;7.606;2023-07-13T11:29:44;26.60;99.90
20985;DHT22;10651;47.552;7.606;2023-07-13T11:36:23;26.70;99.90
20985;DHT22;10651;47.552;7.606;2023-07-13T11:42:27;27.20;99.90
20985;DHT22;10651;47.552;7.606;2023-07-13T11:45:25;27.20;99.90
20985;DHT22;10651;47.552;7.606;2023-07-13T11:48:04;27.20;99.90
20985;DHT22;10651;47.552;7.606;2023-07-13T11:50:49;27.30;99.90
20985;DHT22;10651;47.552;7.606;2023-07-13T11:53:18;27.40;99.90
20985;DHT22;10651;47.552;7.606;2023-07-13T11:56:22;27.20;99.90
20985;DHT22;10651;47.552;7.606;2023-07-13T11:59:11;27.50;99.90
20985;DHT22;10651;47.552;7.606;2023-07-13T12:02:08;27.30;99.90
20985;DHT22;10651;47.552;7.606;2023-07-13T12:05:30;26.80;99.90
20985;DHT22;10651;47.552;7.606;2023-07-13T12:08:26;27.00;99.90
20985;DHT22;10651;47.552;7.606;2023-07-13T12:11:30;27.30;99.90
20985;DHT22;10651;47.552;7.606;2023-07-13T12:14:20;27.60;99.90
20985;DHT22;10651;47.552;7.606;2023-07-13T12:17:15;27.80;99.90
20985;DHT22;10651;47.552;7.606;2023-07-13T12:19:50;27.60;99.50
20985;DHT22;10651;47.552;7.606;2023-07-13T12:22:52;27.70;99.90
20985;DHT22;10651;47.552;7.606;2023-07-13T12:25:46;27.90;99.90
20985;DHT22;10651;47.552;7.606;2023-07-13T12:31:40;27.80;98.20
20985;DHT22;10651;47.552;7.606;2023-07-13T12:34:25;28.00;98.60
20985;DHT22;10651;47.552;7.606;2023-07-13T12:37:12;27.80;98.00
20985;DHT22;10651;47.552;7.606;2023-07-13T12:39:47;27.60;97.20
20985;DHT22;10651;47.552;7.606;2023-07-13T12:46:01;27.50;96.70
20985;DHT22;10651;47.552;7.606;2023-07-13T12:48:27;27.20;97.30
20985;DHT22;10651;47.552;7.606;2023-07-13T12:51:17;27.40;97.70
20985;DHT22;10651;47.552;7.606;2023-07-13T12:54:31;27.60;97.30
20985;DHT22;10651;47.552;7.606;2023-07-13T12:57:29;27.80;96.40
20985;DHT22;10651;47.552;7.606;2023-07-13T13:25:12;27.80;96.00
20985;DHT22;10651;47.552;7.606;2023-07-13T13:30:41;28.40;96.60
20985;DHT22;10651;47.552;7.606;2023-07-13T13:33:23;28.40;96.40
20985;DHT22;10651;47.552;7.606;2023-07-13T13:35:51;28.30;96.40
20985;DHT22;10651;47.552;7.606;2023-07-13T13:38:27;28.30;95.50
20985;DHT22;10651;47.552;7.606;2023-07-13T13:41:14;28.30;94.70
20985;DHT22;10651;47.552;7.606;2023-07-13T13:43:41;28.10;94.40
20985;DHT22;10651;47.552;7.606;2023-07-13T13:46:25;28.20;92.40
20985;DHT22;10651;47.552;7.606;2023-07-13T13:48:54;28.00;93.90
20985;DHT22;10651;47.552;7.606;2023-07-13T13:51:22;28.10;94.20
20985;DHT22;10651;47.552;7.606;2023-07-13T13:54:12;28.20;94.20
20985;DHT22;10651;47.552;7.606;2023-07-13T13:56:53;28.40;92.70
20985;DHT22;10651;47.552;7.606;2023-07-13T13:59:45;28.10;91.80
20985;DHT22;10651;47.552;7.606;2023-07-13T14:02:27;28.20;92.00
20985;DHT22;10651;47.552;7.606;2023-07-13T14:05:06;28.20;92.00
20985;DHT22;10651;47.552;7.606;2023-07-13T14:07:34;28.20;91.70
20985;DHT22;10651;47.552;7.606;2023-07-13T14:10:00;28.30;92.40
20985;DHT22;10651;47.552;7.606;2023-07-13T14:12:28;28.70;92.10
20985;DHT22;10651;47.552;7.606;2023-07-13T14:15:01;28.70;91.90
20985;DHT22;10651;47.552;7.606;2023-07-13T14:17:32;28.50;91.50
20985;DHT22;10651;47.552;7.606;2023-07-13T14:19:59;28.60;91.50
20985;DHT22;10651;47.552;7.606;2023-07-13T14:22:26;28.50;91.40
20985;DHT22;10651;47.552;7.606;2023-07-13T14:24:55;28.20;91.70
20985;DHT22;10651;47.552;7.606;2023-07-13T14:27:50;28.40;92.10
20985;DHT22;10651;47.552;7.606;2023-07-13T14:30:37;28.30;91.60
20985;DHT22;10651;47.552;7.606;2023-07-13T14:33:11;28.40;91.50
20985;DHT22;10651;47.552;7.606;2023-07-13T14:35:37;28.30;92.70
20985;DHT22;10651;47.552;7.606;2023-07-13T14:38:07;28.20;92.80
20985;DHT22;10651;47.552;7.606;2023-07-13T14:40:48;28.10;93.40
20985;DHT22;10651;47.552;7.606;2023-07-13T14:43:16;28.10;93.30
20985;DHT22;10651;47.552;7.606;2023-07-13T14:45:49;28.20;94.30
20985;DHT22;10651;47.552;7.606;2023-07-13T14:48:23;28.10;92.20
20985;DHT22;10651;47.552;7.606;2023-07-13T14:51:11;28.10;93.20
20985;DHT22;10651;47.552;7.606;2023-07-13T14:53:37;28.10;94.10
20985;DHT22;10651;47.552;7.606;2023-07-13T14:56:10;28.10;95.30
20985;DHT22;10651;47.552;7.606;2023-07-13T14:58:36;28.20;95.40
20985;DHT22;10651;47.552;7.606;2023-07-13T15:01:05;28.10;93.60
20985;DHT22;10651;47.552;7.606;2023-07-13T15:03:43;28.10;94.20
20985;DHT22;10651;47.552;7.606;2023-07-13T15:06:11;28.20;94.70
20985;DHT22;10651;47.552;7.606;2023-07-13T15:08:37;28.20;94.90
20985;DHT22;10651;47.552;7.606;2023-07-13T15:11:16;28.20;95.90
20985;DHT22;10651;47.552;7.606;2023-07-13T15:13:56;27.80;94.50
20985;DHT22;10651;47.552;7.606;2023-07-13T15:16:27;27.90;94.10
20985;DHT22;10651;47.552;7.606;2023-07-13T15:18:55;27.90;93.20
20985;DHT22;10651;47.552;7.606;2023-07-13T15:21:23;28.00;92.90
20985;DHT22;10651;47.552;7.606;2023-07-13T15:23:50;27.90;92.70
20985;DHT22;10651;47.552;7.606;2023-07-13T15:26:24;28.00;92.20
20985;DHT22;10651;47.552;7.606;2023-07-13T15:28:56;27.90;92.10
20985;DHT22;10651;47.552;7.606;2023-07-13T15:31:26;27.90;92.40
20985;DHT22;10651;47.552;7.606;2023-07-13T15:33:57;27.90;92.30
20985;DHT22;10651;47.552;7.606;2023-07-13T15:36:24;27.90;92.50
20985;DHT22;10651;47.552;7.606;2023-07-13T15:38:54;27.90;92.20
20985;DHT22;10651;47.552;7.606;2023-07-13T15:41:26;27.80;92.30
20985;DHT22;10651;47.552;7.606;2023-07-13T15:43:58;27.90;92.90
20985;DHT22;10651;47.552;7.606;2023-07-13T15:49:28;27.90;90.70
20985;DHT22;10651;47.552;7.606;2023-07-13T15:51:58;27.80;91.40
20985;DHT22;10651;47.552;7.606;2023-07-13T15:54:24;27.70;91.50
20985;DHT22;10651;47.552;7.606;2023-07-13T15:56:59;27.60;92.30
20985;DHT22;10651;47.552;7.606;2023-07-13T15:59:26;27.60;92.00
20985;DHT22;10651;47.552;7.606;2023-07-13T16:01:51;27.70;91.70
20985;DHT22;10651;47.552;7.606;2023-07-13T16:04:17;27.70;91.60
20985;DHT22;10651;47.552;7.606;2023-07-13T16:06:45;27.70;93.10
20985;DHT22;10651;47.552;7.606;2023-07-13T16:09:20;27.70;92.80
20985;DHT22;10651;47.552;7.606;2023-07-13T16:11:47;27.80;91.90
20985;DHT22;10651;47.552;7.606;2023-07-13T16:14:17;27.80;92.00
20985;DHT22;10651;47.552;7.606;2023-07-13T16:17:01;27.80;92.30
20985;DHT22;10651;47.552;7.606;2023-07-13T16:19:33;27.70;91.40
20985;DHT22;10651;47.552;7.606;2023-07-13T16:21:59;27.90;91.90
20985;DHT22;10651;47.552;7.606;2023-07-13T16:24:41;27.90;91.50
20985;DHT22;10651;47.552;7.606;2023-07-13T16:27:12;27.90;91.40
20985;DHT22;10651;47.552;7.606;2023-07-13T16:29:39;28.00;92.00
20985;DHT22;10651;47.552;7.606;2023-07-13T16:32:12;27.80;91.90
20985;DHT22;10651;47.552;7.606;2023-07-13T16:34:41;27.80;92.50
20985;DHT22;10651;47.552;7.606;2023-07-13T16:37:15;27.70;91.80
20985;DHT22;10651;47.552;7.606;2023-07-13T16:39:53;27.50;91.60
20985;DHT22;10651;47.552;7.606;2023-07-13T16:42:23;27.60;91.90
20985;DHT22;10651;47.552;7.606;2023-07-13T16:45:07;27.50;91.00
20985;DHT22;10651;47.552;7.606;2023-07-13T16:47:42;27.50;91.00
20985;DHT22;10651;47.552;7.606;2023-07-13T16:50:18;27.30;90.10
20985;DHT22;10651;47.552;7.606;2023-07-13T16:52:47;27.30;89.90
20985;DHT22;10651;47.552;7.606;2023-07-13T16:55:30;27.20;90.20
20985;DHT22;10651;47.552;7.606;2023-07-13T16:58:11;27.20;90.50
20985;DHT22;10651;47.552;7.606;2023-07-13T17:00:40;27.10;89.60
20985;DHT22;10651;47.552;7.606;2023-07-13T17:03:08;27.10;90.40
20985;DHT22;10651;47.552;7.606;2023-07-13T17:05:42;27.10;91.20
20985;DHT22;10651;47.552;7.606;2023-07-13T17:08:46;26.90;91.10
20985;DHT22;10651;47.552;7.606;2023-07-13T17:11:05;26.80;91.40
20985;DHT22;10651;47.552;7.606;2023-07-13T17:13:34;26.70;91.60
20985;DHT22;10651;47.552;7.606;2023-07-13T17:16:00;26.60;91.80
20985;DHT22;10651;47.552;7.606;2023-07-13T17:18:42;26.40;91.70
20985;DHT22;10651;47.552;7.606;2023-07-13T17:21:46;26.30;92.10
20985;DHT22;10651;47.552;7.606;2023-07-13T17:24:20;26.20;92.30
20985;DHT22;10651;47.552;7.606;2023-07-13T17:26:47;26.00;92.50
20985;DHT22;10651;47.552;7.606;2023-07-13T17:29:17;25.90;93.20
20985;DHT22;10651;47.552;7.606;2023-07-13T17:32:01;25.80;93.10
20985;DHT22;10651;47.552;7.606;2023-07-13T17:34:43;25.70;92.60
20985;DHT22;10651;47.552;7.606;2023-07-13T17:37:16;25.60;92.90
20985;DHT22;10651;47.552;7.606;2023-07-13T17:39:44;25.60;93.00
20985;DHT22;10651;47.552;7.606;2023-07-13T17:42:23;25.60;93.20
20985;DHT22;10651;47.552;7.606;2023-07-13T17:44:49;25.60;92.90
20985;DHT22;10651;47.552;7.606;2023-07-13T17:50:37;25.60;93.00
20985;DHT22;10651;47.552;7.606;2023-07-13T17:53:29;25.50;92.70
20985;DHT22;10651;47.552;7.606;2023-07-13T17:56:15;25.40;93.10
20985;DHT22;10651;47.552;7.606;2023-07-13T17:58:42;25.30;93.20
20985;DHT22;10651;47.552;7.606;2023-07-13T18:01:17;25.40;93.40
20985;DHT22;10651;47.552;7.606;2023-07-13T18:03:55;25.30;93.40
20985;DHT22;10651;47.552;7.606;2023-07-13T18:06:44;25.30;93.60
20985;DHT22;10651;47.552;7.606;2023-07-13T18:09:40;25.20;94.10
20985;DHT22;10651;47.552;7.606;2023-07-13T18:12:18;25.30;94.40
20985;DHT22;10651;47.552;7.606;2023-07-13T18:14:53;25.30;95.00
20985;DHT22;10651;47.552;7.606;2023-07-13T18:20:02;25.40;99.90
20985;DHT22;10651;47.552;7.606;2023-07-13T18:23:17;25.30;99.80
20985;DHT22;10651;47.552;7.606;2023-07-13T18:25:58;25.40;99.70
20985;DHT22;10651;47.552;7.606;2023-07-13T18:28:50;25.20;97.20
20985;DHT22;10651;47.552;7.606;2023-07-13T18:31:20;25.20;96.90
20985;DHT22;10651;47.552;7.606;2023-07-13T18:33:50;25.30;96.60
20985;DHT22;10651;47.552;7.606;2023-07-13T18:36:19;25.20;97.10
20985;DHT22;10651;47.552;7.606;2023-07-13T18:38:45;25.00;97.10
20985;DHT22;10651;47.552;7.606;2023-07-13T18:41:12;24.90;96.60
20985;DHT22;10651;47.552;7.606;2023-07-13T18:43:38;24.80;96.30
20985;DHT22;10651;47.552;7.606;2023-07-13T18:46:30;24.80;98.10
20985;DHT22;10651;47.552;7.606;2023-07-13T18:49:01;24.70;96.90
20985;DHT22;10651;47.552;7.606;2023-07-13T18:51:28;24.70;96.70
20985;DHT22;10651;47.552;7.606;2023-07-13T18:53:56;24.60;97.30
20985;DHT22;10651;47.552;7.606;2023-07-13T18:56:23;24.60;97.80
20985;DHT22;10651;47.552;7.606;2023-07-13T18:58:49;24.60;99.20
20985;DHT22;10651;47.552;7.606;2023-07-13T19:03:46;24.50;98.60
20985;DHT22;10651;47.552;7.606;2023-07-13T19:06:12;24.40;98.60
20985;DHT22;10651;47.552;7.606;2023-07-13T19:08:41;24.40;99.40
20985;DHT22;10651;47.552;7.606;2023-07-13T19:11:14;24.40;98.50
20985;DHT22;10651;47.552;7.606;2023-07-13T19:13:41;24.20;98.50
20985;DHT22;10651;47.552;7.606;2023-07-13T19:16:13;24.20;99.40
20985;DHT22;10651;47.552;7.606;2023-07-13T19:18:40;24.10;98.40
20985;DHT22;10651;47.552;7.606;2023-07-13T19:21:23;24.10;99.40
20985;DHT22;10651;47.552;7.606;2023-07-13T19:23:51;24.20;99.70
20985;DHT22;10651;47.552;7.606;2023-07-13T19:26:47;24.20;99.90
20985;DHT22;10651;47.552;7.606;2023-07-13T19:38:22;24.00;99.90
20985;DHT22;10651;47.552;7.606;2023-07-13T19:40:48;24.00;99.90
20985;DHT22;10651;47.552;7.606;2023-07-13T19:43:15;23.90;99.90
20985;DHT22;10651;47.552;7.606;2023-07-13T19:45:50;23.80;99.90
20985;DHT22;10651;47.552;7.606;2023-07-13T19:48:20;23.70;99.90
20985;DHT22;10651;47.552;7.606;2023-07-13T19:50:47;23.60;99.90
20985;DHT22;10651;47.552;7.606;2023-07-13T19:53:17;23.50;99.90
20985;DHT22;10651;47.552;7.606;2023-07-13T19:55:45;23.50;99.90
20985;DHT22;10651;47.552;7.606;2023-07-13T19:58:11;23.40;99.90
20985;DHT22;10651;47.552;7.606;2023-07-13T20:00:36;23.40;99.90
20985;DHT22;10651;47.552;7.606;2023-07-13T20:03:04;23.40;99.90
20985;DHT22;10651;47.552;7.606;2023-07-13T20:05:30;23.30;99.90
20985;DHT22;10651;47.552;7.606;2023-07-13T20:07:59;23.30;99.90
20985;DHT22;10651;47.552;7.606;2023-07-13T20:10:27;23.30;99.90
20985;DHT22;10651;47.552;7.606;2023-07-13T20:12:58;23.20;99.90
20985;DHT22;10651;47.552;7.606;2023-07-13T20:15:27;23.10;99.90
20985;DHT22;10651;47.552;7.606;2023-07-13T20:17:58;23.10;99.90
20985;DHT22;10651;47.552;7.606;2023-07-13T20:20:31;23.10;99.90
20985;DHT22;10651;47.552;7.606;2023-07-13T20:22:58;23.00;99.90
20985;DHT22;10651;47.552;7.606;2023-07-13T20:25:29;23.00;99.90
20985;DHT22;10651;47.552;7.606;2023-07-13T20:27:57;22.90;99.90
20985;DHT22;10651;47.552;7.606;2023-07-13T20:30:32;22.90;99.90
20985;DHT22;10651;47.552;7.606;2023-07-13T20:33:04;22.90;99.90
20985;DHT22;10651;47.552;7.606;2023-07-13T20:35:33;22.80;99.90
20985;DHT22;10651;47.552;7.606;2023-07-13T20:38:00;22.90;99.90
20985;DHT22;10651;47.552;7.606;2023-07-13T20:40:29;22.90;99.90
20985;DHT22;10651;47.552;7.606;2023-07-13T20:42:55;22.90;99.90
20985;DHT22;10651;47.552;7.606;2023-07-13T20:45:24;22.80;99.90
20985;DHT22;10651;47.552;7.606;2023-07-13T20:47:51;22.70;99.90
20985;DHT22;10651;47.552;7.606;2023-07-13T20:50:27;22.70;99.90
20985;DHT22;10651;47.552;7.606;2023-07-13T20:53:12;22.70;99.90
20985;DHT22;10651;47.552;7.606;2023-07-13T20:55:59;22.70;99.90
20985;DHT22;10651;47.552;7.606;2023-07-13T20:58:25;22.60;99.90
20985;DHT22;10651;47.552;7.606;2023-07-13T21:00:52;22.50;99.90
20985;DHT22;10651;47.552;7.606;2023-07-13T21:03:23;22.40;99.90
20985;DHT22;10651;47.552;7.606;2023-07-13T21:05:51;22.40;99.90
20985;DHT22;10651;47.552;7.606;2023-07-13T21:08:24;22.40;99.90
20985;DHT22;10651;47.552;7.606;2023-07-13T21:10:50;22.30;99.90
20985;DHT22;10651;47.552;7.606;2023-07-13T21:13:16;22.30;99.90
20985;DHT22;10651;47.552;7.606;2023-07-13T21:15:44;22.30;99.90
20985;DHT22;10651;47.552;7.606;2023-07-13T21:18:22;22.40;99.90
20985;DHT22;10651;47.552;7.606;2023-07-13T21:20:55;22.30;99.90
20985;DHT22;10651;47.552;7.606;2023-07-13T21:23:29;22.40;99.90
20985;DHT22;10651;47.552;7.606;2023-07-13T21:25:57;22.40;99.90
20985;DHT22;10651;47.552;7.606;2023-07-13T21:28:24;22.40;99.90
